Time;durP1;ratioP1;P1;durP2;ratioP2;P2;SDS_P1;SDS_P2;PMS_P1;PMS_P2;Temp;Humidity;BMP_temperature;BMP_pressure;BME280_temperature;BME280_humidity;BME280_pressure;Samples;Min_cycle;Max_cycle;Signal;HPM_P1;HPM_P2
2022/11/16 00:00:12;;;;;;;5.97;3.80;;;15.40;70.20;;;;;;5086879;27;46420;-70
2022/11/16 00:02:40;;;;;;;5.53;3.35;;;15.50;70.20;;;;;;5087206;27;45215;-70
2022/11/16 00:05:07;;;;;;;4.32;2.97;;;15.40;70.00;;;;;;5087273;27;45434;-70
2022/11/16 00:07:34;;;;;;;4.47;3.17;;;15.50;70.10;;;;;;5087347;27;45244;-70
2022/11/16 00:10:01;;;;;;;3.60;3.25;;;15.50;70.00;;;;;;5086742;27;46472;-70
2022/11/16 00:12:28;;;;;;;5.75;3.35;;;15.40;69.90;;;;;;5087056;27;45231;-70
2022/11/16 00:14:55;;;;;;;6.10;3.45;;;15.40;70.00;;;;;;5087262;27;45348;-70
2022/11/16 00:17:21;;;;;;;4.93;3.63;;;15.40;70.00;;;;;;5087233;27;45268;-70
2022/11/16 00:19:50;;;;;;;4.78;3.20;;;15.40;70.00;;;;;;5087179;27;45465;-70
2022/11/16 00:22:17;;;;;;;3.30;2.83;;;15.40;70.00;;;;;;5086537;27;45187;-70
2022/11/16 00:24:43;;;;;;;4.82;3.00;;;15.40;70.00;;;;;;5086455;27;45184;-70
2022/11/16 00:27:10;;;;;;;4.20;2.83;;;15.30;69.90;;;;;;5087019;27;45484;-70
2022/11/16 00:29:37;;;;;;;3.45;2.88;;;15.40;70.00;;;;;;5086704;27;45546;-70
2022/11/16 00:32:05;;;;;;;4.07;3.28;;;15.40;70.80;;;;;;5086887;27;45295;-70
2022/11/16 00:34:32;;;;;;;5.03;3.40;;;15.30;69.90;;;;;;5086753;27;45133;-70
2022/11/16 00:37:00;;;;;;;3.92;2.80;;;15.30;69.90;;;;;;5087115;27;45183;-70
2022/11/16 00:39:27;;;;;;;5.05;2.92;;;15.30;69.90;;;;;;5086687;27;45279;-70
2022/11/16 00:41:55;;;;;;;5.53;3.03;;;15.30;69.90;;;;;;5086691;27;45311;-70
2022/11/16 00:44:22;;;;;;;2.90;2.60;;;15.30;69.90;;;;;;5086693;27;45183;-70
2022/11/16 00:46:48;;;;;;;3.67;2.88;;;15.30;69.80;;;;;;5086906;27;45188;-70
2022/11/16 00:49:15;;;;;;;4.35;2.92;;;15.30;69.90;;;;;;5086387;27;45550;-70
2022/11/16 00:51:42;;;;;;;3.20;2.88;;;15.30;69.90;;;;;;5086156;27;45322;-70
2022/11/16 00:54:10;;;;;;;2.95;2.65;;;15.30;69.90;;;;;;5086457;27;45357;-70
2022/11/16 00:56:37;;;;;;;4.95;3.25;;;15.30;69.90;;;;;;5086819;27;45395;-70
2022/11/16 00:59:04;;;;;;;4.38;3.08;;;15.30;69.80;;;;;;5086439;27;47289;-70
2022/11/16 01:01:31;;;;;;;5.50;3.05;;;15.30;69.90;;;;;;5086409;27;45420;-70
2022/11/16 01:03:58;;;;;;;3.38;2.90;;;15.30;69.80;;;;;;5086507;27;45328;-70
2022/11/16 01:06:25;;;;;;;3.65;3.00;;;15.30;69.80;;;;;;5087328;27;45319;-70
2022/11/16 01:08:51;;;;;;;3.33;2.65;;;15.30;69.80;;;;;;5089506;27;45634;-70
2022/11/16 01:14:04;;;;;;;4.85;3.10;;;15.30;69.70;;;;;;5067021;27;45543;-70
2022/11/16 01:16:30;;;;;;;3.35;2.95;;;15.30;69.70;;;;;;5089718;27;45323;-70
2022/11/16 01:18:57;;;;;;;3.10;2.80;;;15.30;70.40;;;;;;5089512;27;45390;-70
2022/11/16 01:21:25;;;;;;;3.83;2.65;;;15.20;69.60;;;;;;5089464;27;45322;-70
2022/11/16 01:23:51;;;;;;;4.35;2.88;;;15.30;69.70;;;;;;5089738;27;45146;-70
2022/11/16 01:26:20;;;;;;;3.72;2.78;;;15.20;69.60;;;;;;5089888;27;45557;-69
2022/11/16 01:28:47;;;;;;;3.42;2.67;;;15.30;69.70;;;;;;5089213;27;45298;-70
2022/11/16 01:31:13;;;;;;;3.30;3.00;;;15.30;69.70;;;;;;5089198;27;45345;-72
2022/11/16 01:33:40;;;;;;;3.97;2.83;;;15.20;69.70;;;;;;5089302;27;45292;-70
2022/11/16 01:36:09;;;;;;;3.17;2.88;;;15.20;69.60;;;;;;5089610;27;45398;-69
2022/11/16 01:38:36;;;;;;;4.20;2.88;;;15.20;69.60;;;;;;5089141;27;45544;-69
2022/11/16 01:41:03;;;;;;;2.95;2.65;;;15.30;69.70;;;;;;5089248;27;45337;-70
2022/11/16 01:43:48;;;;;;;3.10;2.67;;;15.20;69.50;;;;;;5089242;27;45298;-70
2022/11/16 01:46:15;;;;;;;3.53;3.13;;;15.20;69.50;;;;;;5089319;27;45374;-69
2022/11/16 01:48:42;;;;;;;3.17;2.50;;;15.20;69.50;;;;;;5088863;27;45505;-70
2022/11/16 01:51:08;;;;;;;2.70;2.42;;;15.20;69.40;;;;;;5088680;27;45280;-70
2022/11/16 01:53:35;;;;;;;2.90;2.67;;;15.20;69.50;;;;;;5089194;27;45196;-70
2022/11/16 01:56:02;;;;;;;3.70;2.53;;;15.20;69.40;;;;;;5089132;27;45270;-70
2022/11/16 01:58:30;;;;;;;3.63;2.67;;;15.20;69.40;;;;;;5088699;27;46562;-69
2022/11/16 02:00:57;;;;;;;4.45;2.55;;;15.20;69.50;;;;;;5088393;27;45242;-70
2022/11/16 02:03:25;;;;;;;2.80;2.13;;;15.20;69.50;;;;;;5089047;27;45168;-70
2022/11/16 02:06:00;;;;;;;2.95;2.65;;;15.20;69.40;;;;;;5089163;27;45423;-70
2022/11/16 02:11:27;;;;;;;5.45;2.67;;;15.20;69.40;;;;;;5085568;28;45211;-70
2022/11/16 02:14:01;;;;;;;3.50;2.33;;;15.20;69.40;;;;;;5088385;27;45278;-69
2022/11/16 02:16:31;;;;;;;2.85;2.38;;;15.20;70.10;;;;;;5088778;27;45268;-69
2022/11/16 02:19:02;;;;;;;3.00;2.60;;;15.20;69.40;;;;;;5088137;27;45449;-69
2022/11/16 02:21:33;;;;;;;3.65;2.53;;;15.20;69.40;;;;;;5088592;27;45199;-69
2022/11/16 02:24:33;;;;;;;3.53;2.63;;;15.20;69.40;;;;;;5088855;27;45334;-70
2022/11/16 02:27:32;;;;;;;2.85;2.30;;;15.20;69.40;;;;;;5088238;27;45184;-70
2022/11/16 02:30:00;;;;;;;2.88;2.58;;;15.20;69.40;;;;;;5084512;28;45315;-70
2022/11/16 02:32:28;;;;;;;2.45;2.25;;;15.20;69.40;;;;;;5088341;27;45198;-70
2022/11/16 02:34:57;;;;;;;2.80;2.50;;;15.20;69.40;;;;;;5088371;27;45188;-70
2022/11/16 02:37:24;;;;;;;3.42;2.60;;;15.20;69.40;;;;;;5087973;27;45395;-70
2022/11/16 02:39:53;;;;;;;3.05;2.25;;;15.20;69.40;;;;;;5088046;27;45391;-69
2022/11/16 02:42:22;;;;;;;3.55;2.90;;;15.20;69.40;;;;;;5088220;27;45168;-69
2022/11/16 02:44:49;;;;;;;3.17;2.42;;;15.20;69.40;;;;;;5088542;27;45333;-70
2022/11/16 02:47:19;;;;;;;3.90;2.70;;;15.20;69.30;;;;;;5088507;27;45375;-70
2022/11/16 02:49:50;;;;;;;3.03;2.53;;;15.20;69.40;;;;;;5088122;27;45332;-70
2022/11/16 02:52:17;;;;;;;2.75;2.33;;;15.20;69.30;;;;;;5088125;27;45390;-70
2022/11/16 02:54:44;;;;;;;2.25;2.03;;;15.20;69.40;;;;;;5088286;27;45352;-70
2022/11/16 02:57:27;;;;;;;1.92;1.80;;;15.20;69.30;;;;;;5088332;27;45395;-70
2022/11/16 02:59:55;;;;;;;3.20;2.70;;;15.20;69.30;;;;;;5087915;27;45359;-70
2022/11/16 03:02:24;;;;;;;2.83;2.50;;;15.20;69.20;;;;;;5087991;27;45559;-70
2022/11/16 03:04:53;;;;;;;3.50;2.38;;;15.20;69.20;;;;;;5088215;27;45367;-70
2022/11/16 03:07:21;;;;;;;2.33;2.13;;;15.20;69.20;;;;;;5088227;27;45395;-70
2022/11/16 03:09:48;;;;;;;2.55;2.25;;;15.20;69.20;;;;;;5087635;27;46411;-70
2022/11/16 03:12:15;;;;;;;3.17;2.60;;;15.20;69.20;;;;;;5087767;27;45379;-70
2022/11/16 03:14:43;;;;;;;4.18;2.50;;;15.20;69.10;;;;;;5088053;28;45218;-70
2022/11/16 03:17:13;;;;;;;2.83;2.38;;;15.20;69.20;;;;;;5088189;27;45176;-70
2022/11/16 03:19:42;;;;;;;3.08;2.10;;;15.20;69.20;;;;;;5087656;27;46357;-70
2022/11/16 03:22:12;;;;;;;2.85;2.08;;;15.20;69.20;;;;;;5087661;27;45217;-70
2022/11/16 03:24:39;;;;;;;2.97;2.20;;;15.20;69.10;;;;;;5087876;27;45314;-70
2022/11/16 03:27:06;;;;;;;3.10;2.33;;;15.20;69.10;;;;;;5087993;27;45286;-70
2022/11/16 03:29:36;;;;;;;2.78;1.90;;;15.20;69.10;;;;;;5086421;27;46866;-71
2022/11/16 03:32:05;;;;;;;2.20;1.98;;;15.20;69.10;;;;;;5087366;27;45255;-71
2022/11/16 03:34:33;;;;;;;2.03;1.80;;;15.20;69.10;;;;;;5086790;27;45278;-70
2022/11/16 03:37:01;;;;;;;2.10;1.90;;;15.20;69.00;;;;;;5087987;27;45244;-69
2022/11/16 03:39:31;;;;;;;2.13;1.92;;;15.20;69.00;;;;;;5087350;27;46486;-69
2022/11/16 03:41:57;;;;;;;3.03;2.15;;;15.10;68.90;;;;;;5087639;27;45209;-72
2022/11/16 03:44:24;;;;;;;1.73;1.63;;;15.20;69.00;;;;;;5087473;27;45231;-72
2022/11/16 03:46:51;;;;;;;2.03;1.75;;;15.10;68.90;;;;;;5087882;27;45397;-69
2022/11/16 03:49:21;;;;;;;2.65;2.33;;;15.10;68.90;;;;;;5087069;27;47569;-69
2022/11/16 03:51:48;;;;;;;2.60;1.90;;;15.10;69.50;;;;;;5086930;27;45164;-70
2022/11/16 03:54:16;;;;;;;2.05;1.77;;;15.10;68.90;;;;;;5087336;27;45265;-70
2022/11/16 03:56:43;;;;;;;1.85;1.75;;;15.10;68.90;;;;;;5087755;27;45311;-72
2022/11/16 03:59:10;;;;;;;1.83;1.73;;;15.10;68.90;;;;;;5087143;27;46439;-69
2022/11/16 04:01:37;;;;;;;2.40;1.83;;;15.10;68.80;;;;;;5087159;27;45261;-70
2022/11/16 04:04:04;;;;;;;1.67;1.58;;;15.10;68.80;;;;;;5087491;27;45180;-70
2022/11/16 04:25:59;;;;;;;1.58;1.45;;;15.10;68.70;;;;;;5042387;28;45354;-70
2022/11/16 04:28:27;;;;;;;1.48;1.38;;;15.10;68.70;;;;;;5066819;28;45290;-70
2022/11/16 04:39:08;;;;;;;2.38;2.00;;;15.10;68.70;;;;;;5087318;28;45207;-70
2022/11/16 04:44:20;;;;;;;1.60;1.50;;;15.00;68.50;;;;;;5087928;28;45141;-71
2022/11/16 04:49:31;;;;;;;1.88;1.50;;;15.00;68.60;;;;;;5087838;28;45142;-71
2022/11/16 04:51:58;;;;;;;2.00;1.40;;;15.00;69.30;;;;;;5089926;27;45372;-71
2022/11/16 04:54:25;;;;;;;1.60;1.50;;;15.10;68.60;;;;;;5091313;27;45289;-71
2022/11/16 04:56:54;;;;;;;2.67;1.35;;;15.10;68.60;;;;;;5090408;27;45323;-71
2022/11/16 04:59:21;;;;;;;1.25;1.17;;;15.00;69.20;;;;;;5090573;27;45395;-71
2022/11/16 05:04:32;;;;;;;2.45;1.33;;;15.00;68.60;;;;;;5090387;28;45200;-71
2022/11/16 05:06:59;;;;;;;1.30;1.20;;;15.00;68.50;;;;;;5090034;27;45373;-71
2022/11/16 05:09:26;;;;;;;1.42;1.33;;;15.10;68.50;;;;;;5089926;27;45302;-71
2022/11/16 05:11:54;;;;;;;1.30;1.20;;;15.00;68.50;;;;;;5089858;27;45392;-72
2022/11/16 05:14:21;;;;;;;1.40;1.30;;;15.00;68.50;;;;;;5089828;27;45212;-70
2022/11/16 05:16:47;;;;;;;1.50;1.27;;;15.00;68.50;;;;;;5090117;27;45369;-71
2022/11/16 05:21:59;;;;;;;1.50;1.40;;;15.00;68.40;;;;;;5086979;28;45836;-71
2022/11/16 05:24:35;;;;;;;1.90;1.40;;;15.00;69.10;;;;;;5089592;27;45320;-70
2022/11/16 05:27:03;;;;;;;1.30;1.20;;;15.00;68.40;;;;;;5089839;28;45342;-71
2022/11/16 05:29:30;;;;;;;1.27;1.15;;;15.00;68.40;;;;;;5089913;27;45275;-71
2022/11/16 05:31:58;;;;;;;1.50;1.40;;;15.00;68.40;;;;;;5089299;27;46520;-71
2022/11/16 05:34:25;;;;;;;1.52;1.40;;;15.00;68.30;;;;;;5089274;27;45294;-71
2022/11/16 05:36:51;;;;;;;2.03;1.20;;;15.00;68.30;;;;;;5089592;27;45329;-71
2022/11/16 05:39:19;;;;;;;1.10;1.10;;;15.00;68.30;;;;;;5089350;27;45246;-70
2022/11/16 05:41:46;;;;;;;1.40;1.30;;;14.90;68.30;;;;;;5089387;27;47374;-71
2022/11/16 05:44:14;;;;;;;1.10;1.10;;;15.00;68.30;;;;;;5089363;27;45271;-72
2022/11/16 05:46:41;;;;;;;1.05;1.05;;;15.00;68.30;;;;;;5089507;27;45322;-72
2022/11/16 05:49:08;;;;;;;1.33;1.17;;;15.00;68.30;;;;;;5089521;27;45322;-71
2022/11/16 05:51:35;;;;;;;1.42;1.20;;;15.00;68.30;;;;;;5089000;27;45246;-71
2022/11/16 05:54:02;;;;;;;1.35;1.25;;;14.90;68.20;;;;;;5088187;27;45215;-71
2022/11/16 05:56:29;;;;;;;1.30;1.20;;;15.00;68.20;;;;;;5089345;27;45384;-71
2022/11/16 05:58:56;;;;;;;1.30;1.20;;;15.00;68.20;;;;;;5089551;27;45272;-71
2022/11/16 06:01:24;;;;;;;1.20;1.10;;;15.00;68.20;;;;;;5089143;27;45299;-70
2022/11/16 06:03:51;;;;;;;1.30;1.20;;;15.00;68.20;;;;;;5089215;27;45247;-71
2022/11/16 06:06:18;;;;;;;1.20;1.10;;;15.00;68.20;;;;;;5089263;27;45279;-71
2022/11/16 06:08:45;;;;;;;1.02;1.02;;;15.00;68.20;;;;;;5089193;27;45314;-71
2022/11/16 06:11:12;;;;;;;1.08;0.98;;;14.90;68.20;;;;;;5088997;27;46351;-71
2022/11/16 06:13:39;;;;;;;1.27;1.17;;;14.90;68.20;;;;;;5089014;27;45271;-71
2022/11/16 06:16:07;;;;;;;1.10;1.00;;;14.90;68.20;;;;;;5088976;27;45176;-71
2022/11/16 06:18:38;;;;;;;1.10;1.00;;;14.90;68.20;;;;;;5089197;27;45512;-71
2022/11/16 06:21:05;;;;;;;1.38;1.00;;;14.90;68.30;;;;;;5088863;28;48383;-71
2022/11/16 06:23:32;;;;;;;1.38;1.20;;;14.90;68.20;;;;;;5088060;27;45193;-72
2022/11/16 06:25:59;;;;;;;1.15;1.02;;;14.90;68.20;;;;;;5088680;27;45197;-71
2022/11/16 06:28:26;;;;;;;0.90;0.90;;;14.90;68.10;;;;;;5088921;27;45462;-71
2022/11/16 06:30:53;;;;;;;0.80;0.80;;;14.90;68.20;;;;;;5088487;27;46516;-72
2022/11/16 06:33:20;;;;;;;0.88;0.88;;;14.90;68.90;;;;;;5088866;27;45200;-72
2022/11/16 06:35:48;;;;;;;1.10;1.00;;;14.90;68.20;;;;;;5088723;27;45276;-71
2022/11/16 06:38:17;;;;;;;1.23;1.00;;;14.90;68.10;;;;;;5087886;27;45544;-72
2022/11/16 06:40:44;;;;;;;1.05;0.95;;;14.90;68.10;;;;;;5088513;27;46467;-72
2022/11/16 06:43:11;;;;;;;1.67;1.20;;;14.90;68.10;;;;;;5088109;27;45130;-71
2022/11/16 06:45:38;;;;;;;0.93;0.90;;;14.90;68.10;;;;;;5088760;27;45208;-71
2022/11/16 06:48:05;;;;;;;1.67;1.02;;;14.90;68.10;;;;;;5088626;27;45327;-73
2022/11/16 06:50:33;;;;;;;0.80;0.75;;;14.90;68.10;;;;;;5087907;27;46335;-72
2022/11/16 06:53:01;;;;;;;1.23;1.10;;;14.90;68.10;;;;;;5088276;27;45296;-71
2022/11/16 06:55:28;;;;;;;1.20;1.10;;;14.90;68.10;;;;;;5088112;27;45247;-72
2022/11/16 06:57:55;;;;;;;1.25;1.15;;;14.90;68.10;;;;;;5088529;27;45320;-72
2022/11/16 07:00:22;;;;;;;0.93;0.93;;;14.90;68.10;;;;;;5088218;27;47407;-71
2022/11/16 07:02:49;;;;;;;1.00;1.00;;;14.90;68.10;;;;;;5088095;28;45322;-71
2022/11/16 07:05:16;;;;;;;1.63;1.00;;;14.90;68.10;;;;;;5088503;27;45138;-71
2022/11/16 07:07:43;;;;;;;1.15;1.00;;;14.90;68.10;;;;;;5088086;27;45433;-72
2022/11/16 07:10:12;;;;;;;1.02;0.90;;;14.90;68.10;;;;;;5087608;27;45370;-71
2022/11/16 07:12:38;;;;;;;0.95;0.85;;;14.90;68.10;;;;;;5087973;27;45444;-72
2022/11/16 07:15:06;;;;;;;1.15;1.05;;;14.90;68.00;;;;;;5088321;27;45191;-72
2022/11/16 07:17:34;;;;;;;0.80;0.80;;;14.90;68.00;;;;;;5088412;27;45382;-71
2022/11/16 07:20:01;;;;;;;2.08;1.00;;;14.90;68.00;;;;;;5087898;27;46668;-71
2022/11/16 07:22:27;;;;;;;0.73;0.73;;;14.90;68.70;;;;;;5087918;27;45382;-71
2022/11/16 07:24:54;;;;;;;0.77;0.77;;;14.90;68.00;;;;;;5087991;27;45294;-71
2022/11/16 07:27:22;;;;;;;0.75;0.75;;;14.90;68.00;;;;;;5093816;27;45476;-72
2022/11/16 07:29:49;;;;;;;1.42;0.90;;;14.90;68.00;;;;;;5087614;27;46393;-71
2022/11/16 07:32:16;;;;;;;0.95;0.85;;;14.90;67.90;;;;;;5088097;28;45293;-72
2022/11/16 07:34:43;;;;;;;0.80;0.80;;;14.90;67.90;;;;;;5087891;27;45441;-72
2022/11/16 07:37:10;;;;;;;0.93;0.80;;;14.90;67.90;;;;;;5087883;27;45212;-72
2022/11/16 07:39:37;;;;;;;0.77;0.70;;;14.90;68.00;;;;;;5087593;27;45276;-72
2022/11/16 07:42:06;;;;;;;0.60;0.60;;;14.90;67.90;;;;;;5087837;27;45240;-72
2022/11/16 07:44:34;;;;;;;1.05;1.00;;;14.90;67.90;;;;;;5087675;28;45394;-72
2022/11/16 07:47:01;;;;;;;1.05;0.90;;;14.90;67.80;;;;;;5087986;27;45387;-72
2022/11/16 07:49:28;;;;;;;0.80;0.80;;;14.90;67.80;;;;;;5087723;27;45409;-72
2022/11/16 07:51:55;;;;;;;0.88;0.88;;;14.90;67.80;;;;;;5086815;27;45438;-72
2022/11/16 07:54:22;;;;;;;2.13;0.85;;;14.90;67.70;;;;;;5086965;27;45349;-72
2022/11/16 07:56:49;;;;;;;0.90;0.90;;;14.90;67.60;;;;;;5087617;27;45446;-71
2022/11/16 07:59:16;;;;;;;1.52;0.90;;;14.90;67.60;;;;;;5087386;27;45254;-72
2022/11/16 08:01:46;;;;;;;1.10;1.00;;;14.90;67.60;;;;;;5087575;28;45195;-72
2022/11/16 08:04:14;;;;;;;1.15;0.90;;;14.90;67.50;;;;;;5087449;27;45328;-72
2022/11/16 08:06:41;;;;;;;0.80;0.80;;;14.90;67.50;;;;;;5087850;27;45608;-72
2022/11/16 08:09:07;;;;;;;0.80;0.80;;;14.90;67.50;;;;;;5087074;27;45322;-71
2022/11/16 08:11:34;;;;;;;0.85;0.80;;;14.90;67.50;;;;;;5087180;27;45199;-71
2022/11/16 08:14:01;;;;;;;0.85;0.85;;;14.90;67.50;;;;;;5087197;27;45360;-72
2022/11/16 08:16:28;;;;;;;0.73;0.73;;;14.90;67.50;;;;;;5086838;27;45271;-72
2022/11/16 08:18:56;;;;;;;1.58;0.80;;;14.90;67.50;;;;;;5087039;27;45386;-71
2022/11/16 08:21:23;;;;;;;0.70;0.70;;;14.90;67.50;;;;;;5087024;27;45830;-71
2022/11/16 08:23:50;;;;;;;0.80;0.80;;;14.90;67.50;;;;;;5087192;27;45525;-71
2022/11/16 08:26:18;;;;;;;1.00;0.82;;;14.90;67.40;;;;;;5087150;27;45225;-72
2022/11/16 08:28:46;;;;;;;1.38;1.10;;;15.00;67.40;;;;;;5086815;27;46465;-72
2022/11/16 08:31:13;;;;;;;2.03;0.80;;;15.00;67.40;;;;;;5086663;27;45184;-71
2022/11/16 08:33:40;;;;;;;0.98;0.98;;;15.00;67.40;;;;;;5087204;27;45618;-71
2022/11/16 08:36:11;;;;;;;1.45;0.93;;;15.00;67.40;;;;;;5086694;27;45497;-72
2022/11/16 08:38:39;;;;;;;1.15;0.90;;;14.90;67.30;;;;;;5086106;27;45333;-72
2022/11/16 08:41:06;;;;;;;2.53;1.08;;;15.00;67.40;;;;;;5086484;27;45245;-72
2022/11/16 08:43:33;;;;;;;1.10;1.00;;;15.00;67.40;;;;;;5086873;27;45394;-72
2022/11/16 08:46:00;;;;;;;0.80;0.80;;;15.00;67.30;;;;;;5086883;27;45256;-71
2022/11/16 08:48:27;;;;;;;0.93;0.93;;;15.00;67.20;;;;;;5086681;27;46672;-72
2022/11/16 08:50:54;;;;;;;0.77;0.77;;;15.00;67.20;;;;;;5086541;27;45271;-72
2022/11/16 08:53:22;;;;;;;1.10;0.90;;;15.00;67.20;;;;;;5086982;27;45309;-72
2022/11/16 08:55:49;;;;;;;2.38;1.00;;;15.00;67.20;;;;;;5086882;27;45295;-72
2022/11/16 08:58:16;;;;;;;1.63;1.02;;;15.10;67.20;;;;;;5086633;27;46423;-72
2022/11/16 09:00:43;;;;;;;1.35;0.82;;;15.00;67.10;;;;;;5086430;27;45153;-72
2022/11/16 09:03:10;;;;;;;1.05;0.90;;;15.00;67.10;;;;;;5086977;27;45315;-70
2022/11/16 09:05:38;;;;;;;1.60;1.00;;;15.10;67.20;;;;;;5086654;27;45282;-70
2022/11/16 09:08:05;;;;;;;1.00;1.00;;;15.10;67.20;;;;;;5086341;27;46405;-70
2022/11/16 09:10:33;;;;;;;0.88;0.88;;;15.10;67.20;;;;;;5086135;27;45142;-70
2022/11/16 09:13:01;;;;;;;1.33;1.00;;;15.10;67.20;;;;;;5086550;27;45412;-70
2022/11/16 09:15:28;;;;;;;0.88;0.88;;;15.10;67.10;;;;;;5086590;27;45326;-71
2022/11/16 09:17:55;;;;;;;1.58;0.90;;;15.10;67.10;;;;;;5086288;27;46415;-70
2022/11/16 09:20:22;;;;;;;1.77;0.80;;;15.10;67.10;;;;;;5086318;27;45212;-73
2022/11/16 09:22:49;;;;;;;1.38;1.13;;;15.20;67.10;;;;;;5085596;27;45198;-70
2022/11/16 09:25:17;;;;;;;3.75;1.08;;;15.20;67.10;;;;;;5086436;27;45394;-71
2022/11/16 09:27:46;;;;;;;1.33;0.98;;;15.20;67.00;;;;;;5086672;27;46393;-71
2022/11/16 09:30:13;;;;;;;1.92;1.20;;;15.20;67.00;;;;;;5089760;27;45216;-70
2022/11/16 09:32:40;;;;;;;1.10;1.00;;;15.30;67.00;;;;;;5089914;27;45664;-71
2022/11/16 09:35:07;;;;;;;3.15;1.10;;;15.30;66.90;;;;;;5089912;27;45399;-71
2022/11/16 09:37:34;;;;;;;0.98;0.98;;;15.30;66.90;;;;;;5089551;27;46730;-71
2022/11/16 09:40:01;;;;;;;2.75;1.17;;;15.30;66.80;;;;;;5089508;27;45261;-71
2022/11/16 09:42:37;;;;;;;2.75;1.17;;;15.40;67.50;;;;;;5089574;27;45202;-71
2022/11/16 09:45:07;;;;;;;2.20;1.33;;;15.40;66.70;;;;;;5089852;27;45386;-71
2022/11/16 09:47:44;;;;;;;1.20;1.10;;;15.40;66.60;;;;;;5089177;27;46761;-71
2022/11/16 09:50:19;;;;;;;1.20;1.10;;;15.50;66.60;;;;;;5088916;27;45196;-71
2022/11/16 09:52:46;;;;;;;1.35;1.00;;;15.50;66.50;;;;;;5089595;27;45363;-71
2022/11/16 09:55:22;;;;;;;1.52;1.20;;;15.50;66.50;;;;;;5089362;27;45173;-71
2022/11/16 09:57:48;;;;;;;2.38;1.10;;;15.60;66.40;;;;;;5088994;27;46407;-71
2022/11/16 10:00:19;;;;;;;1.67;1.10;;;15.60;66.40;;;;;;5089124;27;45300;-70
2022/11/16 10:02:47;;;;;;;2.08;1.00;;;15.60;66.40;;;;;;5089582;27;45305;-71
2022/11/16 10:05:17;;;;;;;1.15;1.05;;;15.70;66.40;;;;;;5089474;27;45179;-73
2022/11/16 10:07:47;;;;;;;1.55;1.23;;;15.70;67.00;;;;;;5089032;27;47294;-70
2022/11/16 10:10:14;;;;;;;1.25;1.13;;;15.80;66.30;;;;;;5088986;27;45163;-72
2022/11/16 10:12:42;;;;;;;1.88;1.33;;;15.80;66.10;;;;;;5089235;27;45279;-71
2022/11/16 10:15:32;;;;;;;2.58;1.30;;;15.90;66.00;;;;;;5089265;27;45665;-72
2022/11/16 10:18:05;;;;;;;3.80;1.13;;;15.90;66.00;;;;;;5088899;27;46586;-71
2022/11/16 10:20:42;;;;;;;1.92;1.25;;;15.90;66.00;;;;;;5089044;27;45188;-71
2022/11/16 10:23:12;;;;;;;1.52;1.05;;;15.90;66.00;;;;;;5089001;27;45300;-72
2022/11/16 10:25:42;;;;;;;2.72;1.20;;;15.90;66.10;;;;;;5089208;27;45309;-71
2022/11/16 10:28:29;;;;;;;2.10;1.20;;;15.90;66.10;;;;;;5088803;27;45305;-72
2022/11/16 10:30:59;;;;;;;1.55;1.00;;;15.90;66.20;;;;;;5088797;27;45137;-72
2022/11/16 10:33:33;;;;;;;1.75;1.17;;;16.00;66.00;;;;;;5088787;27;45288;-71
2022/11/16 10:36:01;;;;;;;0.90;0.85;;;16.10;65.70;;;;;;5088911;27;45635;-70
2022/11/16 10:38:29;;;;;;;4.90;1.08;;;16.10;65.30;;;;;;5087934;27;46892;-71
2022/11/16 10:40:57;;;;;;;1.13;1.08;;;16.20;65.50;;;;;;5088621;27;45292;-71
2022/11/16 10:43:24;;;;;;;1.15;0.90;;;16.30;66.50;;;;;;5087645;27;45305;-74
2022/11/16 10:45:54;;;;;;;1.00;0.90;;;16.30;65.50;;;;;;5088675;27;45351;-73
2022/11/16 10:48:29;;;;;;;2.30;0.88;;;16.40;65.30;;;;;;5088418;27;46939;-71
2022/11/16 10:50:56;;;;;;;1.00;0.95;;;16.40;65.10;;;;;;5088249;27;45221;-71
2022/11/16 10:53:27;;;;;;;1.73;1.17;;;16.50;65.00;;;;;;5088577;27;45532;-70
2022/11/16 10:55:58;;;;;;;2.83;0.82;;;16.50;64.90;;;;;;5088506;27;45176;-70
2022/11/16 10:58:25;;;;;;;2.30;1.15;;;16.60;64.90;;;;;;5088082;27;45467;-70
2022/11/16 11:00:52;;;;;;;2.35;1.20;;;16.60;64.70;;;;;;5088325;27;45251;-70
2022/11/16 11:03:29;;;;;;;1.95;0.80;;;16.60;64.70;;;;;;5088383;27;45176;-71
2022/11/16 11:05:56;;;;;;;1.70;0.98;;;16.60;64.80;;;;;;5088686;27;45167;-73
2022/11/16 11:08:29;;;;;;;1.10;1.00;;;16.70;64.80;;;;;;5088002;27;45303;-73
2022/11/16 11:12:36;;;;;;;1.42;0.90;;;16.60;64.80;;;;;;5088251;27;45168;-70
2022/11/16 11:14:03;;;;;;;1.65;1.00;;;16.60;65.10;;;;;;5087879;28;45244;-73
2022/11/16 11:16:30;;;;;;;2.05;1.08;;;16.50;65.40;;;;;;5088528;27;45444;-73
2022/11/16 11:19:02;;;;;;;1.70;0.95;;;16.50;65.60;;;;;;5087827;27;46424;-70
2022/11/16 11:21:30;;;;;;;0.90;0.90;;;16.50;65.80;;;;;;5087857;27;45312;-73
2022/11/16 11:23:58;;;;;;;2.72;1.02;;;16.50;65.70;;;;;;5088094;27;45265;-71
2022/11/16 11:26:31;;;;;;;1.05;0.95;;;16.60;66.10;;;;;;5088234;27;45188;-71
2022/11/16 11:28:58;;;;;;;1.88;1.10;;;16.70;65.00;;;;;;5087871;27;46320;-71
2022/11/16 11:31:28;;;;;;;1.45;0.90;;;16.70;65.20;;;;;;5087554;27;45185;-70
2022/11/16 11:33:55;;;;;;;1.10;1.05;;;16.80;65.80;;;;;;5087806;27;45282;-70
2022/11/16 11:36:24;;;;;;;2.95;1.00;;;16.70;65.00;;;;;;5087815;27;45331;-70
2022/11/16 11:38:56;;;;;;;1.15;0.90;;;16.70;65.20;;;;;;5088050;27;45206;-73
2022/11/16 11:41:23;;;;;;;3.42;0.90;;;16.70;65.10;;;;;;5087779;27;45283;-71
2022/11/16 11:44:01;;;;;;;2.38;0.95;;;16.80;64.90;;;;;;5087516;27;45218;-71
2022/11/16 11:46:29;;;;;;;1.20;1.10;;;16.90;64.40;;;;;;5087960;27;45271;-71
2022/11/16 11:48:58;;;;;;;1.30;1.08;;;17.00;64.20;;;;;;5086964;27;47191;-71
2022/11/16 11:51:29;;;;;;;2.53;0.85;;;16.90;64.80;;;;;;5086426;27;45184;-71
2022/11/16 11:53:58;;;;;;;0.82;0.80;;;16.90;64.60;;;;;;5087674;27;45401;-71
2022/11/16 11:56:24;;;;;;;4.53;0.95;;;16.80;64.70;;;;;;5087929;27;45224;-71
2022/11/16 11:58:52;;;;;;;1.80;0.90;;;16.90;64.90;;;;;;5087231;27;45260;-70
2022/11/16 12:01:47;;;;;;;2.15;0.70;;;17.00;65.10;;;;;;5086966;27;45352;-70
2022/11/16 12:05:00;;;;;;;0.93;0.77;;;17.00;64.10;;;;;;5087053;27;45325;-71
2022/11/16 12:07:44;;;;;;;3.28;1.00;;;17.10;64.00;;;;;;5087693;27;45417;-70
2022/11/16 12:10:15;;;;;;;0.95;0.88;;;17.10;64.00;;;;;;5086871;27;45450;-70
2022/11/16 12:12:48;;;;;;;1.65;0.90;;;17.20;63.80;;;;;;5087118;27;45243;-71
2022/11/16 12:15:40;;;;;;;2.22;0.77;;;17.20;63.60;;;;;;5087333;27;45403;-70
2022/11/16 12:18:15;;;;;;;0.75;0.75;;;17.30;63.40;;;;;;5087349;27;45391;-73
2022/11/16 12:20:44;;;;;;;2.30;0.95;;;17.30;64.00;;;;;;5087222;27;46359;-70
2022/11/16 12:23:26;;;;;;;2.05;0.75;;;17.30;63.30;;;;;;5086847;27;45452;-71
2022/11/16 12:25:56;;;;;;;1.33;0.90;;;17.30;63.30;;;;;;5087317;28;45433;-73
2022/11/16 12:28:34;;;;;;;2.53;0.90;;;17.40;63.30;;;;;;5087628;27;45151;-71
2022/11/16 12:31:10;;;;;;;0.98;0.60;;;17.40;63.20;;;;;;5087158;27;45768;-70
2022/11/16 12:33:40;;;;;;;1.70;0.98;;;17.40;63.10;;;;;;5087058;28;45259;-70
2022/11/16 12:36:10;;;;;;;3.20;0.70;;;17.50;62.90;;;;;;5087474;27;45256;-71
2022/11/16 12:38:47;;;;;;;0.82;0.70;;;17.60;62.70;;;;;;5088210;27;45601;-71
2022/11/16 12:41:52;;;;;;;0.68;0.63;;;17.60;63.20;;;;;;5087873;27;46686;-73
2022/11/16 12:44:21;;;;;;;3.75;0.80;;;17.70;62.40;;;;;;5064574;28;45415;-70
2022/11/16 12:46:52;;;;;;;1.35;0.60;;;17.60;62.50;;;;;;5081679;27;45241;-70
2022/11/16 12:49:32;;;;;;;0.90;0.68;;;17.50;62.90;;;;;;5087230;27;45420;-70
2022/11/16 12:52:06;;;;;;;1.02;0.80;;;17.50;63.00;;;;;;5102652;27;47369;-72
2022/11/16 12:55:00;;;;;;;3.08;0.75;;;17.40;63.10;;;;;;5098662;27;45231;-71
2022/11/16 12:57:31;;;;;;;2.42;1.00;;;17.40;63.30;;;;;;5098327;27;45384;-72
2022/11/16 13:00:04;;;;;;;1.27;0.90;;;17.40;63.30;;;;;;5106632;27;45588;-71
2022/11/16 13:02:39;;;;;;;1.15;0.55;;;17.40;63.50;;;;;;5095165;27;46323;-71
2022/11/16 13:05:12;;;;;;;0.82;0.60;;;17.40;63.70;;;;;;5085874;28;45268;-70
2022/11/16 13:07:41;;;;;;;1.30;0.70;;;17.30;63.70;;;;;;5090750;27;45235;-72
2022/11/16 13:10:14;;;;;;;1.48;0.85;;;17.30;64.00;;;;;;5094800;27;45530;-70
2022/11/16 13:12:41;;;;;;;3.30;1.23;;;17.20;63.90;;;;;;5103561;27;46757;-70
2022/11/16 13:15:17;;;;;;;2.40;1.00;;;17.20;63.90;;;;;;5109616;27;45582;-71
2022/11/16 13:17:47;;;;;;;1.15;0.70;;;17.20;64.10;;;;;;5110069;27;45355;-70
2022/11/16 13:20:23;;;;;;;1.88;0.70;;;17.20;64.30;;;;;;5101460;27;45432;-72
2022/11/16 13:22:53;;;;;;;1.15;0.82;;;17.10;64.50;;;;;;5107213;27;45397;-70
2022/11/16 13:25:24;;;;;;;1.52;1.10;;;17.10;64.50;;;;;;5109745;27;45456;-70
2022/11/16 13:27:53;;;;;;;0.70;0.70;;;17.10;64.50;;;;;;5109207;27;45202;-71
2022/11/16 13:30:20;;;;;;;2.00;0.90;;;17.10;64.60;;;;;;5107567;27;45484;-70
2022/11/16 13:32:57;;;;;;;2.05;0.90;;;17.00;64.50;;;;;;5106626;27;45540;-69
2022/11/16 13:35:23;;;;;;;1.23;0.93;;;17.00;64.60;;;;;;5109152;27;45205;-69
2022/11/16 13:37:51;;;;;;;4.43;0.75;;;17.00;64.40;;;;;;5107294;27;45294;-73
2022/11/16 13:40:31;;;;;;;1.48;0.90;;;17.00;64.30;;;;;;5108779;27;45377;-70
2022/11/16 13:43:17;;;;;;;1.05;0.80;;;16.90;64.40;;;;;;5102331;27;46403;-70